YM Wondrous — VROH9 — position and weather

sailwx.info

Track history (hours):
 
Tides and Currents Weather Stations Pressure Air Temp Water Temp Dewpoint Dewpoint Depression Visibility Wind Speed Wind Dir Waves Ship Positions

YM Wondrous

Last reported at 2018-Feb-16 18:00 UTC. Time now 2018-Feb-19 03:58 UTC.
Position N 35°49' E 030°45'.

Length 368 m; draft 13 m.

Type: Ship (hazmat cat D). MMSI: 477454700.

Date/timePositionNaut miles runAvg speedWind from/ knotsBaromVisibWave heightAir tempDewpointWater temp
2018-Feb-16 18:00N 35°49' E 030°45'910.2
2018-Feb-16 17:06N 35°49' E 030°34'2 8.9
2018-Feb-16 16:55N 35°49' E 030°32'510.1
2018-Feb-16 16:25N 35°49' E 030°26'410.3
2018-Feb-16 16:00N 35°49' E 030°21'234 9.2
2018-Feb-15 14:33N 37°26' E 025°56'011.2
2018-Feb-15 14:31N 37°26' E 025°55'510.2
2018-Feb-15 14:00N 37°31' E 025°52'611.1
2018-Feb-15 13:30N 37°36' E 025°51'611.4
2018-Feb-15 12:57N 37°43' E 025°50'  
2018-Feb-12 22:33N 40°54' E 028°35'413.0
2018-Feb-12 22:12N 40°55' E 028°40'  
2018-Feb-10 15:23N 40°56' E 028°40'1 1.4
2018-Feb-10 14:51N 40°56' E 028°41'1 1.7
2018-Feb-10 14:26N 40°55' E 028°41'1 2.8
2018-Feb-10 13:56N 40°54' E 028°41'4 8.8
2018-Feb-10 13:30N 40°51' E 028°37'13812.9
2018-Feb-10 02:47N 39°53' E 025°53'3 9.3
2018-Feb-10 02:30N 39°53' E 025°49'4 4.4
2018-Feb-10 01:41N 39°51' E 025°45'1 1.9
2018-Feb-10 00:57N 39°50' E 025°45'3 5.2
2018-Feb-10 00:22N 39°48' E 025°42'0 1.0
2018-Feb-10 00:00N 39°48' E 025°42'0 0.9
2018-Feb-09 23:30N 39°49' E 025°43'1 0.6
2018-Feb-09 22:08N 39°49' E 025°44'161 8.4
2018-Feb-09 03:00N 37°36' E 023°47'4 8.1
2018-Feb-09 02:30N 37°38' E 023°43'611.4
2018-Feb-09 02:00N 37°44' E 023°40'1111.1
2018-Feb-09 01:00N 37°54' E 023°37'3 6.3
2018-Feb-09 00:30N 37°57' E 023°35'0 0.0
2018-Feb-08 06:00N 37°57' E 023°35'4 3.6
2018-Feb-08 05:00N 37°54' E 023°34'3 6.3
2018-Feb-08 04:30N 37°51' E 023°34'0 0.9
2018-Feb-08 04:00N 37°51' E 023°34'2 1.2
2018-Feb-08 02:30N 37°49' E 023°35'1 0.5
2018-Feb-08 01:30N 37°49' E 023°34'0 0.5
2018-Feb-08 01:00N 37°49' E 023°34'0 0.5
2018-Feb-08 00:30N 37°49' E 023°34'0 0.3
2018-Feb-08 00:00N 37°49' E 023°34'0 0.2
2018-Feb-07 23:30N 37°49' E 023°34'0 0.2
2018-Feb-07 23:00N 37°49' E 023°34'0 0.3
2018-Feb-07 22:30N 37°48' E 023°34'0 0.4
2018-Feb-07 22:00N 37°48' E 023°34'0 0.5
2018-Feb-07 21:31N 37°48' E 023°33'  
Track history (hours):
 
Tides and Currents Weather Stations Pressure Air Temp Water Temp Dewpoint Dewpoint Depression Visibility Wind Speed Wind Dir Waves Ship Positions

YM Wondrous

Last reported at 2018-Feb-16 18:00 UTC. Time now 2018-Feb-19 03:58 UTC.
Position N 35°49' E 030°45'.

Length 368 m; draft 13 m.

Type: Ship (hazmat cat D). MMSI: 477454700.

Date/timePositionNaut miles runAvg speedWind from/ knotsBaromVisibWave heightAir tempDewpointWater temp
2018-Feb-16 18:00N 35°49' E 030°45'910.2
2018-Feb-16 17:06N 35°49' E 030°34'2 8.9
2018-Feb-16 16:55N 35°49' E 030°32'510.1
2018-Feb-16 16:25N 35°49' E 030°26'410.3
2018-Feb-16 16:00N 35°49' E 030°21'234 9.2
2018-Feb-15 14:33N 37°26' E 025°56'011.2
2018-Feb-15 14:31N 37°26' E 025°55'510.2
2018-Feb-15 14:00N 37°31' E 025°52'611.1
2018-Feb-15 13:30N 37°36' E 025°51'611.4
2018-Feb-15 12:57N 37°43' E 025°50'  
2018-Feb-12 22:33N 40°54' E 028°35'413.0
2018-Feb-12 22:12N 40°55' E 028°40'  
2018-Feb-10 15:23N 40°56' E 028°40'1 1.4
2018-Feb-10 14:51N 40°56' E 028°41'1 1.7
2018-Feb-10 14:26N 40°55' E 028°41'1 2.8
2018-Feb-10 13:56N 40°54' E 028°41'4 8.8
2018-Feb-10 13:30N 40°51' E 028°37'13812.9
2018-Feb-10 02:47N 39°53' E 025°53'3 9.3
2018-Feb-10 02:30N 39°53' E 025°49'4 4.4
2018-Feb-10 01:41N 39°51' E 025°45'1 1.9
2018-Feb-10 00:57N 39°50' E 025°45'3 5.2
2018-Feb-10 00:22N 39°48' E 025°42'0 1.0
2018-Feb-10 00:00N 39°48' E 025°42'0 0.9
2018-Feb-09 23:30N 39°49' E 025°43'1 0.6
2018-Feb-09 22:08N 39°49' E 025°44'161 8.4
2018-Feb-09 03:00N 37°36' E 023°47'4 8.1
2018-Feb-09 02:30N 37°38' E 023°43'611.4
2018-Feb-09 02:00N 37°44' E 023°40'1111.1
2018-Feb-09 01:00N 37°54' E 023°37'3 6.3
2018-Feb-09 00:30N 37°57' E 023°35'0 0.0
2018-Feb-08 06:00N 37°57' E 023°35'4 3.6
2018-Feb-08 05:00N 37°54' E 023°34'3 6.3
2018-Feb-08 04:30N 37°51' E 023°34'0 0.9
2018-Feb-08 04:00N 37°51' E 023°34'2 1.2
2018-Feb-08 02:30N 37°49' E 023°35'1 0.5
2018-Feb-08 01:30N 37°49' E 023°34'0 0.5
2018-Feb-08 01:00N 37°49' E 023°34'0 0.5
2018-Feb-08 00:30N 37°49' E 023°34'0 0.3
2018-Feb-08 00:00N 37°49' E 023°34'0 0.2
2018-Feb-07 23:30N 37°49' E 023°34'0 0.2
2018-Feb-07 23:00N 37°49' E 023°34'0 0.3
2018-Feb-07 22:30N 37°48' E 023°34'0 0.4
2018-Feb-07 22:00N 37°48' E 023°34'0 0.5
2018-Feb-07 21:31N 37°48' E 023°33'  

Dump ship's entire track history